sensor_id;sensor_type;location;lat;lon;timestamp;P1;durP1;ratioP1;P2;durP2;ratioP2
32292;SDS011;43233;48.608;8.838;2023-08-24T00:01:16;5.23;;;4.80;;
32292;SDS011;43233;48.608;8.838;2023-08-24T00:03:43;6.93;;;6.00;;
32292;SDS011;43233;48.608;8.838;2023-08-24T00:06:10;6.90;;;5.07;;
32292;SDS011;43233;48.608;8.838;2023-08-24T00:08:37;7.57;;;5.30;;
32292;SDS011;43233;48.608;8.838;2023-08-24T00:11:02;7.70;;;5.47;;
32292;SDS011;43233;48.608;8.838;2023-08-24T00:13:29;8.30;;;5.20;;
32292;SDS011;43233;48.608;8.838;2023-08-24T00:15:55;5.63;;;5.13;;
32292;SDS011;43233;48.608;8.838;2023-08-24T00:18:21;5.97;;;5.40;;
32292;SDS011;43233;48.608;8.838;2023-08-24T00:20:47;6.97;;;5.50;;
32292;SDS011;43233;48.608;8.838;2023-08-24T00:23:13;8.23;;;5.90;;
32292;SDS011;43233;48.608;8.838;2023-08-24T00:25:39;11.23;;;6.00;;
32292;SDS011;43233;48.608;8.838;2023-08-24T00:28:06;7.07;;;5.27;;
32292;SDS011;43233;48.608;8.838;2023-08-24T00:30:32;6.23;;;5.73;;
32292;SDS011;43233;48.608;8.838;2023-08-24T00:32:57;11.33;;;6.67;;
32292;SDS011;43233;48.608;8.838;2023-08-24T00:35:23;11.53;;;6.90;;
32292;SDS011;43233;48.608;8.838;2023-08-24T00:37:49;7.53;;;6.03;;
32292;SDS011;43233;48.608;8.838;2023-08-24T00:40:15;7.50;;;5.43;;
32292;SDS011;43233;48.608;8.838;2023-08-24T00:42:42;6.30;;;5.70;;
32292;SDS011;43233;48.608;8.838;2023-08-24T00:45:10;9.90;;;6.10;;
32292;SDS011;43233;48.608;8.838;2023-08-24T00:47:39;9.10;;;5.83;;
32292;SDS011;43233;48.608;8.838;2023-08-24T00:50:07;12.10;;;6.50;;
32292;SDS011;43233;48.608;8.838;2023-08-24T00:52:33;8.23;;;5.30;;
32292;SDS011;43233;48.608;8.838;2023-08-24T00:55:02;6.10;;;5.50;;
32292;SDS011;43233;48.608;8.838;2023-08-24T00:57:28;6.23;;;5.63;;
32292;SDS011;43233;48.608;8.838;2023-08-24T00:59:57;7.50;;;6.70;;
32292;SDS011;43233;48.608;8.838;2023-08-24T01:02:24;9.60;;;5.87;;
32292;SDS011;43233;48.608;8.838;2023-08-24T01:04:50;6.20;;;5.37;;
32292;SDS011;43233;48.608;8.838;2023-08-24T01:07:16;6.07;;;5.43;;
32292;SDS011;43233;48.608;8.838;2023-08-24T01:09:42;11.20;;;6.23;;
32292;SDS011;43233;48.608;8.838;2023-08-24T01:17:34;10.07;;;6.60;;
32292;SDS011;43233;48.608;8.838;2023-08-24T01:20:01;8.67;;;5.80;;
32292;SDS011;43233;48.608;8.838;2023-08-24T01:22:34;6.00;;;5.40;;
32292;SDS011;43233;48.608;8.838;2023-08-24T01:28:05;10.10;;;5.37;;
32292;SDS011;43233;48.608;8.838;2023-08-24T01:30:33;5.60;;;4.60;;
32292;SDS011;43233;48.608;8.838;2023-08-24T01:33:02;6.40;;;5.80;;
32292;SDS011;43233;48.608;8.838;2023-08-24T01:35:29;5.87;;;5.27;;
32292;SDS011;43233;48.608;8.838;2023-08-24T01:37:56;6.57;;;4.93;;
32292;SDS011;43233;48.608;8.838;2023-08-24T01:40:30;10.10;;;5.83;;
32292;SDS011;43233;48.608;8.838;2023-08-24T01:43:08;8.13;;;5.53;;
32292;SDS011;43233;48.608;8.838;2023-08-24T01:45:37;10.33;;;5.13;;
32292;SDS011;43233;48.608;8.838;2023-08-24T01:48:06;10.00;;;6.33;;
32292;SDS011;43233;48.608;8.838;2023-08-24T01:50:34;6.70;;;5.60;;
32292;SDS011;43233;48.608;8.838;2023-08-24T01:53:00;10.70;;;6.27;;
32292;SDS011;43233;48.608;8.838;2023-08-24T01:55:27;7.30;;;5.40;;
32292;SDS011;43233;48.608;8.838;2023-08-24T01:57:52;7.00;;;5.93;;
32292;SDS011;43233;48.608;8.838;2023-08-24T02:00:20;8.40;;;6.27;;
32292;SDS011;43233;48.608;8.838;2023-08-24T02:02:46;11.63;;;5.90;;
32292;SDS011;43233;48.608;8.838;2023-08-24T02:05:12;10.70;;;5.60;;
32292;SDS011;43233;48.608;8.838;2023-08-24T02:07:38;6.30;;;5.70;;
32292;SDS011;43233;48.608;8.838;2023-08-24T02:10:05;5.83;;;5.33;;
32292;SDS011;43233;48.608;8.838;2023-08-24T02:12:31;9.30;;;6.00;;
32292;SDS011;43233;48.608;8.838;2023-08-24T02:14:56;10.90;;;5.83;;
32292;SDS011;43233;48.608;8.838;2023-08-24T02:17:22;6.70;;;6.00;;
32292;SDS011;43233;48.608;8.838;2023-08-24T02:19:48;7.37;;;6.17;;
32292;SDS011;43233;48.608;8.838;2023-08-24T02:22:14;7.10;;;6.50;;
32292;SDS011;43233;48.608;8.838;2023-08-24T02:24:41;8.50;;;5.97;;
32292;SDS011;43233;48.608;8.838;2023-08-24T02:27:07;8.30;;;6.20;;
32292;SDS011;43233;48.608;8.838;2023-08-24T02:29:33;7.90;;;6.70;;
32292;SDS011;43233;48.608;8.838;2023-08-24T02:31:59;7.57;;;6.47;;
32292;SDS011;43233;48.608;8.838;2023-08-24T02:34:24;7.90;;;6.57;;
32292;SDS011;43233;48.608;8.838;2023-08-24T02:36:50;7.63;;;6.93;;
32292;SDS011;43233;48.608;8.838;2023-08-24T02:39:16;7.33;;;6.50;;
32292;SDS011;43233;48.608;8.838;2023-08-24T02:41:41;17.30;;;6.80;;
32292;SDS011;43233;48.608;8.838;2023-08-24T02:44:07;7.47;;;5.93;;
32292;SDS011;43233;48.608;8.838;2023-08-24T02:46:32;9.80;;;6.23;;
32292;SDS011;43233;48.608;8.838;2023-08-24T02:48:58;6.20;;;5.70;;
32292;SDS011;43233;48.608;8.838;2023-08-24T02:51:24;7.70;;;6.97;;
32292;SDS011;43233;48.608;8.838;2023-08-24T02:53:50;11.10;;;7.30;;
32292;SDS011;43233;48.608;8.838;2023-08-24T02:56:16;8.50;;;6.33;;
32292;SDS011;43233;48.608;8.838;2023-08-24T02:58:42;9.10;;;7.63;;
32292;SDS011;43233;48.608;8.838;2023-08-24T03:01:07;12.10;;;6.50;;
32292;SDS011;43233;48.608;8.838;2023-08-24T03:03:34;6.57;;;6.00;;
32292;SDS011;43233;48.608;8.838;2023-08-24T03:06:02;7.80;;;6.00;;
32292;SDS011;43233;48.608;8.838;2023-08-24T03:08:31;7.23;;;5.73;;
32292;SDS011;43233;48.608;8.838;2023-08-24T03:10:58;6.70;;;5.83;;
32292;SDS011;43233;48.608;8.838;2023-08-24T03:13:24;7.80;;;6.40;;
32292;SDS011;43233;48.608;8.838;2023-08-24T03:15:50;7.67;;;6.03;;
32292;SDS011;43233;48.608;8.838;2023-08-24T03:18:17;8.60;;;6.47;;
32292;SDS011;43233;48.608;8.838;2023-08-24T03:20:43;7.20;;;6.50;;
32292;SDS011;43233;48.608;8.838;2023-08-24T03:23:10;7.83;;;6.27;;
32292;SDS011;43233;48.608;8.838;2023-08-24T03:25:36;7.63;;;6.30;;
32292;SDS011;43233;48.608;8.838;2023-08-24T03:28:05;6.30;;;5.80;;
32292;SDS011;43233;48.608;8.838;2023-08-24T03:30:33;6.67;;;6.07;;
32292;SDS011;43233;48.608;8.838;2023-08-24T03:33:02;7.47;;;6.60;;
32292;SDS011;43233;48.608;8.838;2023-08-24T03:35:29;8.80;;;6.70;;
32292;SDS011;43233;48.608;8.838;2023-08-24T03:37:56;11.50;;;6.33;;
32292;SDS011;43233;48.608;8.838;2023-08-24T03:40:22;11.17;;;7.00;;
32292;SDS011;43233;48.608;8.838;2023-08-24T03:42:47;6.40;;;5.27;;
32292;SDS011;43233;48.608;8.838;2023-08-24T03:45:13;6.70;;;6.00;;
32292;SDS011;43233;48.608;8.838;2023-08-24T03:47:38;9.80;;;6.30;;
32292;SDS011;43233;48.608;8.838;2023-08-24T03:50:04;9.50;;;6.33;;
32292;SDS011;43233;48.608;8.838;2023-08-24T03:52:30;6.53;;;6.03;;
32292;SDS011;43233;48.608;8.838;2023-08-24T03:54:56;6.73;;;6.10;;
32292;SDS011;43233;48.608;8.838;2023-08-24T03:57:22;6.43;;;5.80;;
32292;SDS011;43233;48.608;8.838;2023-08-24T03:59:47;7.17;;;6.47;;
32292;SDS011;43233;48.608;8.838;2023-08-24T04:02:14;6.60;;;5.90;;
32292;SDS011;43233;48.608;8.838;2023-08-24T04:04:40;11.37;;;7.50;;
32292;SDS011;43233;48.608;8.838;2023-08-24T04:07:05;9.30;;;7.70;;
32292;SDS011;43233;48.608;8.838;2023-08-24T04:09:31;10.27;;;8.03;;
32292;SDS011;43233;48.608;8.838;2023-08-24T04:11:57;9.93;;;7.07;;
32292;SDS011;43233;48.608;8.838;2023-08-24T04:14:22;8.93;;;7.10;;
32292;SDS011;43233;48.608;8.838;2023-08-24T04:16:48;10.43;;;7.53;;
32292;SDS011;43233;48.608;8.838;2023-08-24T04:19:13;8.77;;;7.30;;
32292;SDS011;43233;48.608;8.838;2023-08-24T04:21:39;9.80;;;7.33;;
32292;SDS011;43233;48.608;8.838;2023-08-24T04:24:05;6.40;;;5.90;;
32292;SDS011;43233;48.608;8.838;2023-08-24T04:26:31;7.30;;;6.37;;
32292;SDS011;43233;48.608;8.838;2023-08-24T04:28:56;10.77;;;7.03;;
32292;SDS011;43233;48.608;8.838;2023-08-24T04:31:22;8.40;;;6.50;;
32292;SDS011;43233;48.608;8.838;2023-08-24T04:33:48;6.50;;;5.90;;
32292;SDS011;43233;48.608;8.838;2023-08-24T04:36:17;9.90;;;6.47;;
32292;SDS011;43233;48.608;8.838;2023-08-24T04:38:42;10.27;;;6.93;;
32292;SDS011;43233;48.608;8.838;2023-08-24T04:41:09;12.40;;;6.80;;
32292;SDS011;43233;48.608;8.838;2023-08-24T04:43:36;6.57;;;5.90;;
32292;SDS011;43233;48.608;8.838;2023-08-24T04:46:01;10.43;;;6.30;;
32292;SDS011;43233;48.608;8.838;2023-08-24T04:48:27;9.13;;;6.33;;
32292;SDS011;43233;48.608;8.838;2023-08-24T04:50:58;10.10;;;6.00;;
32292;SDS011;43233;48.608;8.838;2023-08-24T04:53:24;6.93;;;6.33;;
32292;SDS011;43233;48.608;8.838;2023-08-24T04:55:50;6.97;;;6.37;;
32292;SDS011;43233;48.608;8.838;2023-08-24T04:58:16;7.90;;;5.63;;
32292;SDS011;43233;48.608;8.838;2023-08-24T05:00:43;8.00;;;6.20;;
32292;SDS011;43233;48.608;8.838;2023-08-24T05:03:09;8.80;;;6.50;;
32292;SDS011;43233;48.608;8.838;2023-08-24T05:05:35;7.73;;;6.93;;
32292;SDS011;43233;48.608;8.838;2023-08-24T05:08:04;14.40;;;6.40;;
32292;SDS011;43233;48.608;8.838;2023-08-24T05:10:31;8.10;;;6.47;;
32292;SDS011;43233;48.608;8.838;2023-08-24T05:12:58;8.37;;;6.80;;
32292;SDS011;43233;48.608;8.838;2023-08-24T05:15:24;7.00;;;6.30;;
32292;SDS011;43233;48.608;8.838;2023-08-24T05:17:50;7.90;;;6.60;;
32292;SDS011;43233;48.608;8.838;2023-08-24T05:20:19;11.93;;;6.47;;
32292;SDS011;43233;48.608;8.838;2023-08-24T05:22:45;9.53;;;7.60;;
32292;SDS011;43233;48.608;8.838;2023-08-24T05:25:11;7.27;;;6.13;;
32292;SDS011;43233;48.608;8.838;2023-08-24T05:27:37;7.33;;;5.87;;
32292;SDS011;43233;48.608;8.838;2023-08-24T05:30:03;10.27;;;6.50;;
32292;SDS011;43233;48.608;8.838;2023-08-24T05:32:30;7.43;;;6.50;;
32292;SDS011;43233;48.608;8.838;2023-08-24T05:34:56;10.60;;;6.37;;
32292;SDS011;43233;48.608;8.838;2023-08-24T05:37:22;7.33;;;5.13;;
32292;SDS011;43233;48.608;8.838;2023-08-24T05:39:48;6.53;;;5.90;;
32292;SDS011;43233;48.608;8.838;2023-08-24T05:42:13;10.23;;;6.20;;
32292;SDS011;43233;48.608;8.838;2023-08-24T05:44:39;7.53;;;6.07;;
32292;SDS011;43233;48.608;8.838;2023-08-24T05:47:05;8.23;;;5.80;;
32292;SDS011;43233;48.608;8.838;2023-08-24T05:49:30;8.03;;;5.57;;
32292;SDS011;43233;48.608;8.838;2023-08-24T05:51:56;9.07;;;6.10;;
32292;SDS011;43233;48.608;8.838;2023-08-24T05:54:21;16.80;;;6.77;;
32292;SDS011;43233;48.608;8.838;2023-08-24T05:56:47;8.73;;;5.73;;
32292;SDS011;43233;48.608;8.838;2023-08-24T05:59:13;7.20;;;6.33;;
32292;SDS011;43233;48.608;8.838;2023-08-24T06:01:39;7.10;;;5.43;;
32292;SDS011;43233;48.608;8.838;2023-08-24T06:04:06;19.20;;;6.40;;
32292;SDS011;43233;48.608;8.838;2023-08-24T06:06:35;8.30;;;6.37;;
32292;SDS011;43233;48.608;8.838;2023-08-24T06:09:02;9.17;;;6.90;;
32292;SDS011;43233;48.608;8.838;2023-08-24T06:11:32;6.40;;;5.73;;
32292;SDS011;43233;48.608;8.838;2023-08-24T06:13:58;8.10;;;6.80;;
32292;SDS011;43233;48.608;8.838;2023-08-24T06:16:23;8.40;;;5.80;;
32292;SDS011;43233;48.608;8.838;2023-08-24T06:18:49;8.03;;;5.83;;
32292;SDS011;43233;48.608;8.838;2023-08-24T06:21:15;6.30;;;5.47;;
32292;SDS011;43233;48.608;8.838;2023-08-24T06:23:41;7.13;;;6.40;;
32292;SDS011;43233;48.608;8.838;2023-08-24T06:26:07;6.40;;;5.77;;
32292;SDS011;43233;48.608;8.838;2023-08-24T06:28:33;15.83;;;6.90;;
32292;SDS011;43233;48.608;8.838;2023-08-24T06:30:59;9.70;;;6.93;;
32292;SDS011;43233;48.608;8.838;2023-08-24T06:33:29;7.53;;;5.80;;
32292;SDS011;43233;48.608;8.838;2023-08-24T06:35:58;13.30;;;7.10;;
32292;SDS011;43233;48.608;8.838;2023-08-24T06:38:25;11.73;;;6.60;;
32292;SDS011;43233;48.608;8.838;2023-08-24T06:40:51;18.57;;;7.30;;
32292;SDS011;43233;48.608;8.838;2023-08-24T06:43:16;9.10;;;6.87;;
32292;SDS011;43233;48.608;8.838;2023-08-24T06:45:46;18.77;;;6.87;;
32292;SDS011;43233;48.608;8.838;2023-08-24T06:48:11;25.70;;;7.00;;
32292;SDS011;43233;48.608;8.838;2023-08-24T06:50:37;32.60;;;6.60;;
32292;SDS011;43233;48.608;8.838;2023-08-24T06:53:03;20.77;;;7.07;;
32292;SDS011;43233;48.608;8.838;2023-08-24T06:55:29;19.93;;;6.90;;
32292;SDS011;43233;48.608;8.838;2023-08-24T06:57:55;34.97;;;7.80;;
32292;SDS011;43233;48.608;8.838;2023-08-24T07:00:21;24.00;;;8.17;;
32292;SDS011;43233;48.608;8.838;2023-08-24T07:02:48;24.93;;;7.47;;
32292;SDS011;43233;48.608;8.838;2023-08-24T07:05:15;19.20;;;6.37;;
32292;SDS011;43233;48.608;8.838;2023-08-24T07:07:44;20.43;;;6.70;;
32292;SDS011;43233;48.608;8.838;2023-08-24T07:10:10;19.60;;;6.27;;
32292;SDS011;43233;48.608;8.838;2023-08-24T07:12:37;11.70;;;5.50;;
32292;SDS011;43233;48.608;8.838;2023-08-24T07:15:06;25.40;;;6.70;;
32292;SDS011;43233;48.608;8.838;2023-08-24T07:17:32;20.47;;;6.57;;
32292;SDS011;43233;48.608;8.838;2023-08-24T07:20:01;8.80;;;6.17;;
32292;SDS011;43233;48.608;8.838;2023-08-24T07:22:29;13.83;;;5.53;;
32292;SDS011;43233;48.608;8.838;2023-08-24T07:24:55;5.87;;;5.17;;
32292;SDS011;43233;48.608;8.838;2023-08-24T07:27:21;7.43;;;6.03;;
32292;SDS011;43233;48.608;8.838;2023-08-24T07:29:47;8.40;;;5.40;;
32292;SDS011;43233;48.608;8.838;2023-08-24T07:32:13;10.37;;;5.93;;
32292;SDS011;43233;48.608;8.838;2023-08-24T07:34:39;6.10;;;5.07;;
32292;SDS011;43233;48.608;8.838;2023-08-24T07:37:05;6.23;;;4.13;;
32292;SDS011;43233;48.608;8.838;2023-08-24T07:39:31;5.00;;;4.40;;
32292;SDS011;43233;48.608;8.838;2023-08-24T07:41:57;9.20;;;3.90;;
32292;SDS011;43233;48.608;8.838;2023-08-24T07:44:23;5.43;;;4.20;;
32292;SDS011;43233;48.608;8.838;2023-08-24T07:46:49;7.93;;;4.33;;
32292;SDS011;43233;48.608;8.838;2023-08-24T07:49:14;4.20;;;3.77;;
32292;SDS011;43233;48.608;8.838;2023-08-24T07:51:40;4.23;;;3.87;;
32292;SDS011;43233;48.608;8.838;2023-08-24T07:54:07;4.60;;;4.20;;
32292;SDS011;43233;48.608;8.838;2023-08-24T07:56:34;6.10;;;4.20;;
32292;SDS011;43233;48.608;8.838;2023-08-24T07:59:00;4.23;;;3.83;;
32292;SDS011;43233;48.608;8.838;2023-08-24T08:01:26;5.93;;;4.53;;
32292;SDS011;43233;48.608;8.838;2023-08-24T08:03:52;5.10;;;4.60;;
32292;SDS011;43233;48.608;8.838;2023-08-24T08:06:17;7.10;;;4.50;;
32292;SDS011;43233;48.608;8.838;2023-08-24T08:08:43;6.07;;;4.67;;
32292;SDS011;43233;48.608;8.838;2023-08-24T08:11:10;4.73;;;4.30;;
32292;SDS011;43233;48.608;8.838;2023-08-24T08:13:36;4.70;;;4.30;;
32292;SDS011;43233;48.608;8.838;2023-08-24T08:16:05;5.20;;;4.17;;
32292;SDS011;43233;48.608;8.838;2023-08-24T08:18:32;4.30;;;3.90;;
32292;SDS011;43233;48.608;8.838;2023-08-24T08:20:58;5.20;;;3.97;;
32292;SDS011;43233;48.608;8.838;2023-08-24T08:23:24;5.33;;;3.63;;
32292;SDS011;43233;48.608;8.838;2023-08-24T08:25:50;6.97;;;4.23;;
32292;SDS011;43233;48.608;8.838;2023-08-24T08:28:16;4.10;;;3.33;;
32292;SDS011;43233;48.608;8.838;2023-08-24T08:30:47;3.87;;;3.57;;
32292;SDS011;43233;48.608;8.838;2023-08-24T08:33:13;7.23;;;4.40;;
32292;SDS011;43233;48.608;8.838;2023-08-24T08:35:39;7.50;;;4.00;;
32292;SDS011;43233;48.608;8.838;2023-08-24T08:38:06;4.77;;;4.07;;
32292;SDS011;43233;48.608;8.838;2023-08-24T08:40:36;9.33;;;4.00;;
32292;SDS011;43233;48.608;8.838;2023-08-24T08:43:02;6.30;;;3.80;;
32292;SDS011;43233;48.608;8.838;2023-08-24T08:45:28;3.87;;;3.53;;
32292;SDS011;43233;48.608;8.838;2023-08-24T08:47:57;4.93;;;4.00;;
32292;SDS011;43233;48.608;8.838;2023-08-24T08:50:25;7.80;;;4.53;;
32292;SDS011;43233;48.608;8.838;2023-08-24T08:52:50;6.43;;;3.80;;
32292;SDS011;43233;48.608;8.838;2023-08-24T08:55:17;10.73;;;5.00;;
32292;SDS011;43233;48.608;8.838;2023-08-24T08:57:43;5.93;;;4.00;;
32292;SDS011;43233;48.608;8.838;2023-08-24T09:00:13;6.43;;;4.30;;
32292;SDS011;43233;48.608;8.838;2023-08-24T09:02:43;3.90;;;3.60;;
32292;SDS011;43233;48.608;8.838;2023-08-24T09:05:11;4.03;;;3.40;;
32292;SDS011;43233;48.608;8.838;2023-08-24T09:07:40;6.20;;;4.40;;
32292;SDS011;43233;48.608;8.838;2023-08-24T09:10:07;6.90;;;3.83;;
32292;SDS011;43233;48.608;8.838;2023-08-24T09:12:33;5.00;;;4.10;;
32292;SDS011;43233;48.608;8.838;2023-08-24T09:14:59;5.50;;;4.20;;
32292;SDS011;43233;48.608;8.838;2023-08-24T09:17:28;15.27;;;4.70;;
32292;SDS011;43233;48.608;8.838;2023-08-24T09:19:58;7.67;;;4.43;;
32292;SDS011;43233;48.608;8.838;2023-08-24T09:22:24;8.03;;;4.80;;
32292;SDS011;43233;48.608;8.838;2023-08-24T09:24:50;7.00;;;4.37;;
32292;SDS011;43233;48.608;8.838;2023-08-24T09:27:17;4.43;;;4.10;;
32292;SDS011;43233;48.608;8.838;2023-08-24T09:29:50;5.47;;;4.70;;
32292;SDS011;43233;48.608;8.838;2023-08-24T09:32:21;9.10;;;5.73;;
32292;SDS011;43233;48.608;8.838;2023-08-24T09:34:54;5.07;;;4.27;;
32292;SDS011;43233;48.608;8.838;2023-08-24T09:37:20;5.83;;;4.40;;
32292;SDS011;43233;48.608;8.838;2023-08-24T09:39:49;4.80;;;4.20;;
32292;SDS011;43233;48.608;8.838;2023-08-24T09:42:25;6.27;;;4.30;;
32292;SDS011;43233;48.608;8.838;2023-08-24T09:44:51;5.37;;;4.87;;
32292;SDS011;43233;48.608;8.838;2023-08-24T09:47:17;11.80;;;4.80;;
32292;SDS011;43233;48.608;8.838;2023-08-24T09:49:42;6.53;;;4.17;;
32292;SDS011;43233;48.608;8.838;2023-08-24T09:52:08;6.40;;;4.97;;
32292;SDS011;43233;48.608;8.838;2023-08-24T09:54:37;5.40;;;4.50;;
32292;SDS011;43233;48.608;8.838;2023-08-24T09:57:04;9.20;;;4.73;;
32292;SDS011;43233;48.608;8.838;2023-08-24T09:59:34;7.13;;;4.40;;
32292;SDS011;43233;48.608;8.838;2023-08-24T10:02:00;9.50;;;5.00;;
32292;SDS011;43233;48.608;8.838;2023-08-24T10:04:32;9.30;;;4.80;;
32292;SDS011;43233;48.608;8.838;2023-08-24T10:07:08;4.97;;;4.30;;
32292;SDS011;43233;48.608;8.838;2023-08-24T10:09:53;17.90;;;4.20;;
32292;SDS011;43233;48.608;8.838;2023-08-24T10:12:28;9.13;;;5.13;;
32292;SDS011;43233;48.608;8.838;2023-08-24T10:14:59;15.33;;;4.80;;
32292;SDS011;43233;48.608;8.838;2023-08-24T10:17:28;7.90;;;4.53;;
32292;SDS011;43233;48.608;8.838;2023-08-24T10:19:57;14.10;;;5.10;;
32292;SDS011;43233;48.608;8.838;2023-08-24T10:22:26;8.30;;;5.20;;
32292;SDS011;43233;48.608;8.838;2023-08-24T10:24:53;7.27;;;4.43;;
32292;SDS011;43233;48.608;8.838;2023-08-24T10:27:22;5.10;;;4.60;;
32292;SDS011;43233;48.608;8.838;2023-08-24T10:29:49;8.67;;;4.80;;
32292;SDS011;43233;48.608;8.838;2023-08-24T10:32:15;9.03;;;5.07;;
32292;SDS011;43233;48.608;8.838;2023-08-24T10:34:41;6.67;;;4.93;;
32292;SDS011;43233;48.608;8.838;2023-08-24T10:37:08;9.90;;;4.83;;
32292;SDS011;43233;48.608;8.838;2023-08-24T10:39:38;5.63;;;4.73;;
32292;SDS011;43233;48.608;8.838;2023-08-24T10:42:11;10.77;;;6.13;;
32292;SDS011;43233;48.608;8.838;2023-08-24T10:44:38;12.93;;;6.20;;
32292;SDS011;43233;48.608;8.838;2023-08-24T10:47:26;5.77;;;4.40;;
32292;SDS011;43233;48.608;8.838;2023-08-24T10:52:21;9.80;;;5.33;;
32292;SDS011;43233;48.608;8.838;2023-08-24T10:54:58;6.53;;;4.67;;
32292;SDS011;43233;48.608;8.838;2023-08-24T10:57:27;7.10;;;4.73;;
32292;SDS011;43233;48.608;8.838;2023-08-24T11:02:47;8.47;;;4.90;;
32292;SDS011;43233;48.608;8.838;2023-08-24T11:07:49;6.50;;;4.77;;
32292;SDS011;43233;48.608;8.838;2023-08-24T11:10:19;8.40;;;5.20;;
32292;SDS011;43233;48.608;8.838;2023-08-24T11:13:04;8.00;;;5.13;;
32292;SDS011;43233;48.608;8.838;2023-08-24T11:18:29;5.10;;;4.60;;
32292;SDS011;43233;48.608;8.838;2023-08-24T11:20:56;7.50;;;5.00;;
32292;SDS011;43233;48.608;8.838;2023-08-24T11:23:25;7.07;;;4.93;;
32292;SDS011;43233;48.608;8.838;2023-08-24T11:25:52;8.33;;;5.23;;
32292;SDS011;43233;48.608;8.838;2023-08-24T11:28:22;14.03;;;5.63;;
32292;SDS011;43233;48.608;8.838;2023-08-24T11:30:49;8.20;;;5.00;;
32292;SDS011;43233;48.608;8.838;2023-08-24T11:33:16;10.20;;;5.43;;
32292;SDS011;43233;48.608;8.838;2023-08-24T11:35:52;4.60;;;4.13;;
32292;SDS011;43233;48.608;8.838;2023-08-24T11:38:18;5.53;;;5.00;;
32292;SDS011;43233;48.608;8.838;2023-08-24T11:40:44;14.43;;;4.90;;
32292;SDS011;43233;48.608;8.838;2023-08-24T11:43:09;7.90;;;5.37;;
32292;SDS011;43233;48.608;8.838;2023-08-24T11:45:35;7.17;;;4.17;;
32292;SDS011;43233;48.608;8.838;2023-08-24T11:48:02;10.23;;;5.80;;
32292;SDS011;43233;48.608;8.838;2023-08-24T11:50:32;6.47;;;5.67;;
32292;SDS011;43233;48.608;8.838;2023-08-24T11:53:01;15.40;;;5.40;;
32292;SDS011;43233;48.608;8.838;2023-08-24T11:55:27;11.33;;;4.37;;
32292;SDS011;43233;48.608;8.838;2023-08-24T11:57:53;8.37;;;5.00;;
32292;SDS011;43233;48.608;8.838;2023-08-24T12:00:20;6.40;;;4.70;;
32292;SDS011;43233;48.608;8.838;2023-08-24T12:02:46;5.80;;;5.27;;
32292;SDS011;43233;48.608;8.838;2023-08-24T12:05:20;9.07;;;4.90;;
32292;SDS011;43233;48.608;8.838;2023-08-24T12:07:52;17.43;;;5.57;;
32292;SDS011;43233;48.608;8.838;2023-08-24T12:10:20;10.13;;;4.97;;
32292;SDS011;43233;48.608;8.838;2023-08-24T12:12:46;7.00;;;5.63;;
32292;SDS011;43233;48.608;8.838;2023-08-24T12:15:16;6.87;;;4.70;;
32292;SDS011;43233;48.608;8.838;2023-08-24T12:17:46;9.23;;;5.23;;
32292;SDS011;43233;48.608;8.838;2023-08-24T12:20:17;7.17;;;5.03;;
32292;SDS011;43233;48.608;8.838;2023-08-24T12:22:49;8.27;;;5.80;;
32292;SDS011;43233;48.608;8.838;2023-08-24T12:25:18;8.43;;;4.90;;
32292;SDS011;43233;48.608;8.838;2023-08-24T12:27:47;9.10;;;4.90;;
32292;SDS011;43233;48.608;8.838;2023-08-24T12:30:13;5.10;;;4.47;;
32292;SDS011;43233;48.608;8.838;2023-08-24T12:32:46;5.07;;;4.27;;
32292;SDS011;43233;48.608;8.838;2023-08-24T12:35:14;11.40;;;4.60;;
32292;SDS011;43233;48.608;8.838;2023-08-24T12:37:40;9.20;;;4.63;;
32292;SDS011;43233;48.608;8.838;2023-08-24T12:40:06;9.27;;;5.10;;
32292;SDS011;43233;48.608;8.838;2023-08-24T12:42:33;11.37;;;4.47;;
32292;SDS011;43233;48.608;8.838;2023-08-24T12:44:59;10.20;;;5.23;;
32292;SDS011;43233;48.608;8.838;2023-08-24T12:47:24;9.13;;;5.30;;
32292;SDS011;43233;48.608;8.838;2023-08-24T12:49:50;10.33;;;5.40;;
32292;SDS011;43233;48.608;8.838;2023-08-24T12:52:17;9.67;;;4.67;;
32292;SDS011;43233;48.608;8.838;2023-08-24T12:54:43;8.77;;;5.23;;
32292;SDS011;43233;48.608;8.838;2023-08-24T12:57:09;25.07;;;6.00;;
32292;SDS011;43233;48.608;8.838;2023-08-24T12:59:35;20.80;;;5.47;;
32292;SDS011;43233;48.608;8.838;2023-08-24T13:02:00;12.47;;;5.30;;
32292;SDS011;43233;48.608;8.838;2023-08-24T13:04:26;13.63;;;5.07;;
32292;SDS011;43233;48.608;8.838;2023-08-24T13:06:54;12.17;;;5.10;;
32292;SDS011;43233;48.608;8.838;2023-08-24T13:09:20;13.03;;;4.63;;
32292;SDS011;43233;48.608;8.838;2023-08-24T13:11:46;8.00;;;4.70;;
32292;SDS011;43233;48.608;8.838;2023-08-24T13:14:13;10.77;;;4.60;;
32292;SDS011;43233;48.608;8.838;2023-08-24T13:16:39;9.40;;;4.77;;
32292;SDS011;43233;48.608;8.838;2023-08-24T13:19:05;7.00;;;4.93;;
32292;SDS011;43233;48.608;8.838;2023-08-24T13:21:30;8.90;;;5.17;;
32292;SDS011;43233;48.608;8.838;2023-08-24T13:23:56;29.57;;;5.40;;
32292;SDS011;43233;48.608;8.838;2023-08-24T13:26:22;8.50;;;4.73;;
32292;SDS011;43233;48.608;8.838;2023-08-24T13:28:51;14.57;;;4.97;;
32292;SDS011;43233;48.608;8.838;2023-08-24T13:31:18;8.50;;;5.63;;
32292;SDS011;43233;48.608;8.838;2023-08-24T13:33:44;10.70;;;5.00;;
32292;SDS011;43233;48.608;8.838;2023-08-24T13:36:10;10.70;;;4.27;;
32292;SDS011;43233;48.608;8.838;2023-08-24T13:38:36;14.37;;;4.70;;
32292;SDS011;43233;48.608;8.838;2023-08-24T13:41:01;6.30;;;4.40;;
32292;SDS011;43233;48.608;8.838;2023-08-24T13:43:28;16.33;;;4.20;;
32292;SDS011;43233;48.608;8.838;2023-08-24T13:45:54;7.90;;;4.60;;
32292;SDS011;43233;48.608;8.838;2023-08-24T13:48:20;7.80;;;5.20;;
32292;SDS011;43233;48.608;8.838;2023-08-24T13:50:49;14.43;;;4.53;;
32292;SDS011;43233;48.608;8.838;2023-08-24T13:53:17;11.07;;;5.30;;
32292;SDS011;43233;48.608;8.838;2023-08-24T13:55:42;14.53;;;5.13;;
32292;SDS011;43233;48.608;8.838;2023-08-24T13:58:08;7.23;;;4.80;;
32292;SDS011;43233;48.608;8.838;2023-08-24T14:00:34;5.80;;;4.70;;
32292;SDS011;43233;48.608;8.838;2023-08-24T14:02:59;12.53;;;4.87;;
32292;SDS011;43233;48.608;8.838;2023-08-24T14:05:25;11.13;;;4.50;;
32292;SDS011;43233;48.608;8.838;2023-08-24T14:07:50;7.73;;;4.10;;
32292;SDS011;43233;48.608;8.838;2023-08-24T14:10:16;9.50;;;4.67;;
32292;SDS011;43233;48.608;8.838;2023-08-24T14:12:42;10.50;;;4.30;;
32292;SDS011;43233;48.608;8.838;2023-08-24T14:15:07;10.37;;;4.97;;
32292;SDS011;43233;48.608;8.838;2023-08-24T14:17:34;10.30;;;4.60;;
32292;SDS011;43233;48.608;8.838;2023-08-24T14:19:59;11.03;;;5.57;;
32292;SDS011;43233;48.608;8.838;2023-08-24T14:22:25;7.93;;;4.17;;
32292;SDS011;43233;48.608;8.838;2023-08-24T14:24:51;7.87;;;4.40;;
32292;SDS011;43233;48.608;8.838;2023-08-24T14:27:16;6.20;;;4.50;;
32292;SDS011;43233;48.608;8.838;2023-08-24T14:29:42;7.90;;;4.93;;
32292;SDS011;43233;48.608;8.838;2023-08-24T14:32:08;7.53;;;5.03;;
32292;SDS011;43233;48.608;8.838;2023-08-24T14:34:34;9.67;;;4.63;;
32292;SDS011;43233;48.608;8.838;2023-08-24T14:36:59;9.63;;;4.57;;
32292;SDS011;43233;48.608;8.838;2023-08-24T14:39:25;9.37;;;5.03;;
32292;SDS011;43233;48.608;8.838;2023-08-24T14:41:51;13.53;;;6.13;;
32292;SDS011;43233;48.608;8.838;2023-08-24T14:44:17;15.07;;;4.93;;
32292;SDS011;43233;48.608;8.838;2023-08-24T14:46:42;12.43;;;5.00;;
32292;SDS011;43233;48.608;8.838;2023-08-24T14:49:09;10.00;;;4.73;;
32292;SDS011;43233;48.608;8.838;2023-08-24T14:51:34;21.47;;;6.03;;
32292;SDS011;43233;48.608;8.838;2023-08-24T14:54:00;26.73;;;6.03;;
32292;SDS011;43233;48.608;8.838;2023-08-24T14:56:26;13.20;;;5.43;;
32292;SDS011;43233;48.608;8.838;2023-08-24T14:58:51;11.03;;;6.07;;
32292;SDS011;43233;48.608;8.838;2023-08-24T15:01:17;9.57;;;5.97;;